createdAt,value
2022-09-13T00:00:10.695Z,18.35
2022-09-13T00:02:39.999Z,18.34
2022-09-13T00:05:09.725Z,18.33
2022-09-13T00:07:39.061Z,18.33
2022-09-13T00:10:09.124Z,18.29
2022-09-13T00:12:38.564Z,18.25
2022-09-13T00:15:08.880Z,18.20
2022-09-13T00:17:38.115Z,18.19
2022-09-13T00:20:10.868Z,18.19
2022-09-13T00:22:40.154Z,18.21
2022-09-13T00:25:09.985Z,18.21
2022-09-13T00:27:39.365Z,18.22
2022-09-13T00:30:09.666Z,18.22
2022-09-13T00:32:39.428Z,18.23
2022-09-13T00:35:09.549Z,18.22
2022-09-13T00:37:39.358Z,18.25
2022-09-13T00:40:11.458Z,18.25
2022-09-13T00:42:42.482Z,18.23
2022-09-13T00:45:15.083Z,18.24
2022-09-13T00:47:59.665Z,18.22
2022-09-13T00:50:44.109Z,18.20
2022-09-13T00:53:24.739Z,18.17
2022-09-13T00:56:02.624Z,18.14
2022-09-13T00:58:44.085Z,18.15
2022-09-13T01:01:16.346Z,18.16
2022-09-13T01:03:47.114Z,18.25
2022-09-13T01:06:22.009Z,18.34
2022-09-13T01:08:54.957Z,18.40
2022-09-13T01:11:33.247Z,18.44
2022-09-13T01:14:02.726Z,18.44
2022-09-13T01:16:32.154Z,18.46
2022-09-13T01:19:01.613Z,18.49
2022-09-13T01:21:53.420Z,18.50
2022-09-13T01:24:48.210Z,18.54
2022-09-13T01:27:26.453Z,18.52
2022-09-13T01:30:18.471Z,18.50
2022-09-13T01:32:57.299Z,18.51
2022-09-13T01:35:41.765Z,18.52
2022-09-13T01:38:35.155Z,18.50
2022-09-13T01:41:13.680Z,18.49
2022-09-13T01:44:01.173Z,18.51
2022-09-13T01:46:33.620Z,18.50
2022-09-13T01:49:12.433Z,18.47
2022-09-13T01:51:48.481Z,18.37
2022-09-13T01:54:35.717Z,18.26
2022-09-13T01:57:23.164Z,18.23
2022-09-13T01:59:55.669Z,18.19
2022-09-13T02:02:26.010Z,18.16
2022-09-13T02:04:57.778Z,18.14
2022-09-13T02:07:33.606Z,18.14
2022-09-13T02:10:06.125Z,18.10
2022-09-13T02:12:37.104Z,18.08
2022-09-13T02:15:15.305Z,18.08
2022-09-13T02:17:47.949Z,18.07
2022-09-13T02:20:37.958Z,18.07
2022-09-13T02:23:10.605Z,18.06
2022-09-13T02:25:41.481Z,18.03
2022-09-13T02:28:16.339Z,18.05
2022-09-13T02:30:47.927Z,18.09
2022-09-13T02:33:20.081Z,18.12
2022-09-13T02:35:58.673Z,18.14
2022-09-13T02:38:31.153Z,18.12
2022-09-13T02:41:03.216Z,18.14
2022-09-13T02:43:38.640Z,18.12
2022-09-13T02:46:29.183Z,18.10
2022-09-13T02:49:01.773Z,18.12
2022-09-13T02:51:31.768Z,18.11
2022-09-13T02:54:15.677Z,18.07
2022-09-13T02:56:51.707Z,18.12
2022-09-13T02:59:25.078Z,18.09
2022-09-13T03:02:06.300Z,18.06
2022-09-13T03:04:35.977Z,18.07
2022-09-13T03:07:07.697Z,18.08
2022-09-13T03:09:37.064Z,18.07
2022-09-13T03:12:12.082Z,18.02
2022-09-13T03:14:59.532Z,17.97
2022-09-13T03:17:51.660Z,17.96
2022-09-13T03:20:48.340Z,17.98
2022-09-13T03:23:23.977Z,17.95
2022-09-13T03:26:05.072Z,17.90
2022-09-13T03:28:46.756Z,17.89
2022-09-13T03:31:24.835Z,17.89
2022-09-13T03:34:03.333Z,17.85
2022-09-13T03:36:35.063Z,17.84
2022-09-13T03:39:19.603Z,17.86
2022-09-13T03:41:51.249Z,17.86
2022-09-13T03:44:22.576Z,17.88
2022-09-13T03:46:54.493Z,17.89
2022-09-13T03:49:25.243Z,17.90
2022-09-13T03:51:55.197Z,17.92
2022-09-13T03:54:32.459Z,17.93
2022-09-13T03:57:17.494Z,17.95
2022-09-13T03:59:51.733Z,17.85
2022-09-13T04:02:23.513Z,17.76
2022-09-13T04:04:52.833Z,17.65
2022-09-13T04:07:24.101Z,17.59
2022-09-13T04:09:53.375Z,17.58
2022-09-13T04:12:23.113Z,17.55
2022-09-13T04:14:52.605Z,17.51
2022-09-13T04:17:21.822Z,17.50
2022-09-13T04:19:51.030Z,17.51
2022-09-13T04:22:20.271Z,17.52
2022-09-13T04:24:49.551Z,17.52
2022-09-13T04:27:18.820Z,17.54
2022-09-13T04:29:48.189Z,17.58
2022-09-13T04:32:17.427Z,17.62
2022-09-13T04:34:47.821Z,17.62
2022-09-13T04:37:17.067Z,17.62
2022-09-13T04:39:47.100Z,17.62
2022-09-13T04:42:16.416Z,17.62
2022-09-13T04:44:46.212Z,17.64
2022-09-13T04:47:15.457Z,17.64
2022-09-13T04:49:44.903Z,17.62
2022-09-13T04:52:14.135Z,17.62
2022-09-13T04:54:43.740Z,17.61
2022-09-13T04:57:12.970Z,17.57
2022-09-13T04:59:42.326Z,17.54
2022-09-13T05:02:11.646Z,17.50
2022-09-13T05:04:41.007Z,17.45
2022-09-13T05:07:10.358Z,17.39
2022-09-13T05:09:39.669Z,17.36
2022-09-13T05:12:09.041Z,17.29
2022-09-13T05:14:38.441Z,17.33
2022-09-13T05:17:07.651Z,17.30
2022-09-13T05:19:37.059Z,17.32
2022-09-13T05:22:06.253Z,17.35
2022-09-13T05:24:35.567Z,17.41
2022-09-13T05:27:04.914Z,17.40
2022-09-13T05:29:34.151Z,17.41
2022-09-13T05:32:04.437Z,17.46
2022-09-13T05:34:33.694Z,17.49
2022-09-13T05:37:03.310Z,17.52
2022-09-13T05:39:43.973Z,17.57
2022-09-13T05:42:03.632Z,17.58
2022-09-13T05:44:32.912Z,17.58
2022-09-13T05:47:02.179Z,17.60
2022-09-13T05:49:31.562Z,17.62
2022-09-13T05:52:00.779Z,17.65
2022-09-13T05:54:30.224Z,17.70
2022-09-13T05:56:59.457Z,17.74
2022-09-13T05:59:28.837Z,17.76
2022-09-13T06:01:58.499Z,17.80
2022-09-13T06:04:27.815Z,17.85
2022-09-13T06:06:57.417Z,17.90
2022-09-13T06:09:26.793Z,17.95
2022-09-13T06:11:56.352Z,18.01
2022-09-13T06:14:25.654Z,18.05
2022-09-13T06:16:54.899Z,18.09
2022-09-13T06:19:24.193Z,18.10
2022-09-13T06:21:53.427Z,18.11
2022-09-13T06:24:22.627Z,18.17
2022-09-13T06:26:52.221Z,18.24
2022-09-13T06:29:21.601Z,18.26
2022-09-13T06:31:50.998Z,18.29
2022-09-13T06:34:20.250Z,18.32
2022-09-13T06:36:49.478Z,18.39
2022-09-13T06:39:18.846Z,18.46
2022-09-13T06:41:48.314Z,18.62
2022-09-13T06:44:18.063Z,18.87
2022-09-13T06:46:47.477Z,19.04
2022-09-13T06:49:16.790Z,19.24
2022-09-13T06:51:46.033Z,19.39
2022-09-13T06:54:15.280Z,19.56
2022-09-13T06:56:44.512Z,19.71
2022-09-13T06:59:13.720Z,19.85
2022-09-13T07:01:44.979Z,19.92
2022-09-13T07:04:16.468Z,20.01
2022-09-13T07:06:48.028Z,20.11
2022-09-13T07:09:22.315Z,20.18
2022-09-13T07:11:53.090Z,20.30
2022-09-13T07:14:24.367Z,20.34
2022-09-13T07:16:54.437Z,20.39
2022-09-13T07:19:27.669Z,20.42
2022-09-13T07:21:57.750Z,20.53
2022-09-13T07:24:27.618Z,20.57
2022-09-13T07:26:57.017Z,20.63
2022-09-13T07:29:26.213Z,20.66
2022-09-13T07:31:56.940Z,20.83
2022-09-13T07:34:27.449Z,20.90
2022-09-13T07:36:56.794Z,20.85
2022-09-13T07:39:26.000Z,20.90
2022-09-13T07:41:55.322Z,21.04
2022-09-13T07:44:24.524Z,20.84
2022-09-13T07:46:53.870Z,20.85
2022-09-13T07:49:23.135Z,20.97
2022-09-13T07:51:53.073Z,21.04
2022-09-13T07:54:22.278Z,21.25
2022-09-13T07:56:52.000Z,21.43
2022-09-13T07:59:21.270Z,21.52
2022-09-13T08:01:52.153Z,21.55
2022-09-13T08:04:23.908Z,21.60
2022-09-13T08:06:53.599Z,21.71
2022-09-13T08:09:22.798Z,21.78
2022-09-13T08:11:53.490Z,21.91
2022-09-13T08:14:24.467Z,21.98
2022-09-13T08:16:58.082Z,21.95
2022-09-13T08:19:27.434Z,21.91
2022-09-13T08:21:56.657Z,21.64
2022-09-13T08:24:26.830Z,21.50
2022-09-13T08:26:56.551Z,21.60
2022-09-13T08:29:26.117Z,21.68
2022-09-13T08:31:55.497Z,21.87
2022-09-13T08:34:24.931Z,22.19
2022-09-13T08:36:54.229Z,22.41
2022-09-13T08:39:23.674Z,22.51
2022-09-13T08:41:56.074Z,22.21
2022-09-13T08:44:31.742Z,22.09
2022-09-13T08:47:29.293Z,22.08
2022-09-13T08:50:01.684Z,22.25
2022-09-13T08:52:48.459Z,22.61
2022-09-13T08:55:26.788Z,22.34
2022-09-13T08:58:08.064Z,22.57
2022-09-13T09:00:43.565Z,22.77
2022-09-13T09:03:24.623Z,22.80
2022-09-13T09:05:54.576Z,23.19
2022-09-13T09:08:33.973Z,23.71
2022-09-13T09:11:06.532Z,24.07
2022-09-13T09:13:44.707Z,24.15
2022-09-13T09:16:32.516Z,23.70
2022-09-13T09:19:07.708Z,24.14
2022-09-13T09:21:38.063Z,26.46
2022-09-13T09:24:07.680Z,26.46
2022-09-13T09:26:36.898Z,27.09
2022-09-13T09:29:26.275Z,27.60
2022-09-13T09:32:18.246Z,27.38
2022-09-13T09:34:53.664Z,27.48
2022-09-13T09:37:27.399Z,28.47
2022-09-13T09:40:06.191Z,28.76
2022-09-13T09:42:47.082Z,27.19
2022-09-13T09:45:25.551Z,27.48
2022-09-13T09:47:55.752Z,28.44
2022-09-13T09:50:28.123Z,28.37
2022-09-13T09:53:06.260Z,28.61
2022-09-13T09:55:53.813Z,28.02
2022-09-13T09:58:42.872Z,26.91
2022-09-13T10:01:30.092Z,25.97
2022-09-13T10:04:16.160Z,25.14
2022-09-13T10:06:46.439Z,24.49
2022-09-13T10:09:18.058Z,24.01
2022-09-13T10:11:49.907Z,24.19
2022-09-13T10:14:38.838Z,24.35
2022-09-13T10:17:17.778Z,24.15
2022-09-13T10:20:01.908Z,24.51
2022-09-13T10:22:32.875Z,24.84
2022-09-13T10:25:25.622Z,25.48
2022-09-13T10:27:57.170Z,26.61
2022-09-13T10:30:48.937Z,27.43
2022-09-13T10:33:35.879Z,27.40
2022-09-13T10:36:07.993Z,27.49
2022-09-13T10:38:37.608Z,27.90
2022-09-13T10:41:12.473Z,28.77
2022-09-13T10:43:41.842Z,28.79
2022-09-13T10:46:13.669Z,28.32
2022-09-13T10:48:50.291Z,28.34
2022-09-13T10:51:21.963Z,27.70
2022-09-13T10:53:51.339Z,27.50
2022-09-13T10:56:28.152Z,26.39
2022-09-13T10:59:18.341Z,25.43
2022-09-13T11:02:11.608Z,25.67
2022-09-13T11:05:01.178Z,25.81
2022-09-13T11:07:50.093Z,25.26
2022-09-13T11:10:28.636Z,25.68
2022-09-13T11:13:17.393Z,25.88
2022-09-13T11:16:24.938Z,25.58
2022-09-13T11:19:18.534Z,25.15
2022-09-13T11:22:03.154Z,25.98
2022-09-13T11:24:35.596Z,27.00
2022-09-13T11:27:10.894Z,27.72
2022-09-13T11:29:58.260Z,28.51
2022-09-13T11:32:36.780Z,29.44
2022-09-13T11:35:23.416Z,29.99
2022-09-13T11:38:18.466Z,28.64
2022-09-13T11:40:53.720Z,28.28
2022-09-13T11:43:42.797Z,28.58
2022-09-13T11:46:15.264Z,28.48
2022-09-13T11:48:53.670Z,28.45
2022-09-13T11:51:37.557Z,29.60
2022-09-13T11:54:15.840Z,31.07
2022-09-13T11:56:47.864Z,30.14
2022-09-13T11:59:37.333Z,30.92
2022-09-13T12:02:21.829Z,30.13
2022-09-13T12:05:21.596Z,29.85
2022-09-13T12:07:53.857Z,28.85
2022-09-13T12:10:31.750Z,29.85
2022-09-13T12:13:03.100Z,30.17
2022-09-13T12:15:41.334Z,28.87
2022-09-13T12:18:19.333Z,27.78
2022-09-13T12:20:51.766Z,26.63
2022-09-13T12:23:25.206Z,27.58
2022-09-13T12:26:03.675Z,28.39
2022-09-13T12:28:38.536Z,28.95
2022-09-13T12:31:28.522Z,29.65
2022-09-13T12:33:58.602Z,30.07
2022-09-13T12:36:42.868Z,29.44
2022-09-13T12:39:36.135Z,29.66
2022-09-13T12:42:29.515Z,29.80
2022-09-13T12:45:19.151Z,28.86
2022-09-13T12:48:17.419Z,27.81
2022-09-13T12:50:52.472Z,26.31
2022-09-13T12:53:44.333Z,25.70
2022-09-13T12:56:41.750Z,25.74
2022-09-13T12:59:34.258Z,25.84
2022-09-13T13:02:04.169Z,26.13
2022-09-13T13:04:37.391Z,26.81
2022-09-13T13:07:10.244Z,27.17
2022-09-13T13:09:48.503Z,26.99
2022-09-13T13:12:30.093Z,27.44
2022-09-13T13:15:01.293Z,26.96
2022-09-13T13:17:52.213Z,26.75
2022-09-13T13:20:50.554Z,26.22
2022-09-13T13:23:40.917Z,25.68
2022-09-13T13:26:28.705Z,25.49
2022-09-13T13:29:13.402Z,25.28
2022-09-13T13:32:01.432Z,25.17
2022-09-13T13:34:39.762Z,24.82
2022-09-13T13:37:20.643Z,24.78
2022-09-13T13:39:52.698Z,25.15
2022-09-13T13:42:36.385Z,25.65
2022-09-13T13:45:18.498Z,25.66
2022-09-13T13:47:59.599Z,25.12
2022-09-13T13:50:28.827Z,24.78
2022-09-13T13:53:01.663Z,24.18
2022-09-13T13:55:34.336Z,23.98
2022-09-13T13:58:25.993Z,24.02
2022-09-13T14:00:56.400Z,24.02
2022-09-13T14:03:52.911Z,23.87
2022-09-13T14:06:33.792Z,23.77
2022-09-13T14:09:33.105Z,23.74
2022-09-13T14:12:24.247Z,23.64
2022-09-13T14:15:19.774Z,23.68
2022-09-13T14:21:26.886Z,23.35
2022-09-13T14:27:33.552Z,23.15
2022-09-13T14:30:06.308Z,22.99
2022-09-13T14:32:43.997Z,23.07
2022-09-13T14:35:35.895Z,22.91
2022-09-13T14:38:14.427Z,22.97
2022-09-13T14:40:47.044Z,23.03
2022-09-13T14:43:19.867Z,23.00
2022-09-13T14:45:51.411Z,22.81
2022-09-13T14:48:26.322Z,22.75
2022-09-13T14:51:15.339Z,22.64
2022-09-13T14:53:44.860Z,22.59
2022-09-13T14:56:26.233Z,22.65
2022-09-13T14:58:57.553Z,22.70
2022-09-13T15:01:32.496Z,22.68
2022-09-13T15:04:03.621Z,22.64
2022-09-13T15:06:38.099Z,22.61
2022-09-13T15:09:16.311Z,22.60
2022-09-13T15:11:57.902Z,22.58
2022-09-13T15:14:32.007Z,22.49
2022-09-13T15:17:12.469Z,22.29
2022-09-13T15:19:52.619Z,22.14
2022-09-13T15:22:27.903Z,22.04
2022-09-13T15:24:58.972Z,21.97
2022-09-13T15:27:44.884Z,21.90
2022-09-13T15:30:26.210Z,21.86
2022-09-13T15:33:13.708Z,21.79
2022-09-13T15:35:45.032Z,21.71
2022-09-13T15:38:32.348Z,21.59
2022-09-13T15:41:15.471Z,21.55
2022-09-13T15:43:44.714Z,21.43
2022-09-13T15:46:16.233Z,21.28
2022-09-13T15:48:54.497Z,21.25
2022-09-13T15:51:24.157Z,21.19
2022-09-13T15:53:53.747Z,21.08
2022-09-13T15:56:33.472Z,21.02
2022-09-13T15:59:02.753Z,20.95
2022-09-13T16:01:32.423Z,20.91
2022-09-13T16:04:03.432Z,20.80
2022-09-13T16:06:32.691Z,20.90
2022-09-13T16:09:02.140Z,20.82
2022-09-13T16:11:31.505Z,20.76
2022-09-13T16:14:00.763Z,20.76
2022-09-13T16:16:30.336Z,20.66
2022-09-13T16:19:01.351Z,20.61
2022-09-13T16:21:30.852Z,20.55
2022-09-13T16:24:00.109Z,20.52
2022-09-13T16:26:30.230Z,20.45
2022-09-13T16:28:59.447Z,20.43
2022-09-13T16:31:28.957Z,20.40
2022-09-13T16:33:58.333Z,20.33
2022-09-13T16:36:29.409Z,20.25
2022-09-13T16:38:59.039Z,20.19
2022-09-13T16:41:28.532Z,20.10
2022-09-13T16:43:58.269Z,20.07
2022-09-13T16:46:28.529Z,20.04
2022-09-13T16:48:58.243Z,20.02
2022-09-13T16:51:27.672Z,19.93
2022-09-13T16:53:57.314Z,19.86
2022-09-13T16:56:27.370Z,19.81
2022-09-13T16:58:56.872Z,19.69
2022-09-13T17:01:28.342Z,19.67
2022-09-13T17:03:58.201Z,19.64
2022-09-13T17:06:28.113Z,19.59
2022-09-13T17:09:02.033Z,19.45
2022-09-13T17:11:33.953Z,19.49
2022-09-13T17:14:05.189Z,19.43
2022-09-13T17:16:39.745Z,19.37
2022-09-13T17:19:12.648Z,19.38
2022-09-13T17:21:42.080Z,19.34
2022-09-13T17:24:13.693Z,19.32
2022-09-13T17:26:43.608Z,19.27
2022-09-13T17:29:14.011Z,19.22
2022-09-13T17:31:43.818Z,19.16
2022-09-13T17:34:13.998Z,19.12
2022-09-13T17:36:43.556Z,19.08
2022-09-13T17:39:12.973Z,19.02
2022-09-13T17:41:42.302Z,19.00
2022-09-13T17:44:12.474Z,19.00
2022-09-13T17:46:41.793Z,18.98
2022-09-13T17:49:11.036Z,18.93
2022-09-13T17:51:40.394Z,18.82
2022-09-13T17:54:11.889Z,18.79
2022-09-13T17:56:43.429Z,18.74
2022-09-13T17:59:14.755Z,18.68
2022-09-13T18:01:46.171Z,18.66
2022-09-13T18:04:17.726Z,18.62
2022-09-13T18:06:47.018Z,18.58
2022-09-13T18:09:16.789Z,18.55
2022-09-13T18:11:46.007Z,18.45
2022-09-13T18:14:17.458Z,18.37
2022-09-13T18:16:47.248Z,18.29
2022-09-13T18:19:16.708Z,18.20
2022-09-13T18:21:45.939Z,18.13
2022-09-13T18:24:15.569Z,18.02
2022-09-13T18:26:44.860Z,18.01
2022-09-13T18:29:15.274Z,17.92
2022-09-13T18:31:44.646Z,17.86
2022-09-13T18:34:15.343Z,17.84
2022-09-13T18:36:44.908Z,17.78
2022-09-13T18:39:19.387Z,17.71
2022-09-13T18:41:49.066Z,17.64
2022-09-13T18:44:19.253Z,17.61
2022-09-13T18:46:50.957Z,17.54
2022-09-13T18:49:20.599Z,17.44
2022-09-13T18:51:50.510Z,17.33
2022-09-13T18:54:20.946Z,17.21
2022-09-13T18:56:51.257Z,17.15
2022-09-13T18:59:21.430Z,17.10
2022-09-13T19:01:52.138Z,17.10
2022-09-13T19:04:23.025Z,17.07
2022-09-13T19:06:56.336Z,17.03
2022-09-13T19:09:27.805Z,16.95
2022-09-13T19:11:58.470Z,16.91
2022-09-13T19:14:29.498Z,16.89
2022-09-13T19:17:04.904Z,16.85
2022-09-13T19:19:35.753Z,16.82
2022-09-13T19:22:06.161Z,16.80
2022-09-13T19:24:37.501Z,16.79
2022-09-13T19:27:07.648Z,16.74
2022-09-13T19:29:37.305Z,16.76
2022-09-13T19:32:06.992Z,16.69
2022-09-13T19:34:37.552Z,16.65
2022-09-13T19:37:06.978Z,16.66
2022-09-13T19:39:36.769Z,16.54
2022-09-13T19:42:06.126Z,16.47
2022-09-13T19:44:35.763Z,16.41
2022-09-13T19:47:53.147Z,16.41
2022-09-13T19:49:37.890Z,16.33
2022-09-13T19:52:07.302Z,16.32
2022-09-13T19:54:36.648Z,16.30
2022-09-13T19:57:07.695Z,16.23
2022-09-13T19:59:37.059Z,16.23
2022-09-13T20:02:06.986Z,16.21
2022-09-13T20:04:36.675Z,16.15
2022-09-13T20:07:06.101Z,16.10
2022-09-13T20:09:35.388Z,16.05
2022-09-13T20:12:06.590Z,16.00
2022-09-13T20:14:37.623Z,15.96
2022-09-13T20:17:07.380Z,15.90
2022-09-13T20:19:42.862Z,15.87
2022-09-13T20:22:09.562Z,15.79
2022-09-13T20:24:38.893Z,15.75
2022-09-13T20:27:08.407Z,15.74
2022-09-13T20:29:37.880Z,15.69
2022-09-13T20:32:07.248Z,15.69
2022-09-13T20:34:37.760Z,15.59
2022-09-13T20:37:07.195Z,15.54
2022-09-13T20:39:36.512Z,15.54
2022-09-13T20:42:06.170Z,15.45
2022-09-13T20:44:35.394Z,15.42
2022-09-13T20:47:05.469Z,15.44
2022-09-13T20:49:34.673Z,15.38
2022-09-13T20:52:04.191Z,15.38
2022-09-13T20:54:33.471Z,15.34
2022-09-13T20:57:02.900Z,15.32
2022-09-13T20:59:32.280Z,15.28
2022-09-13T21:02:01.717Z,15.30
2022-09-13T21:04:32.292Z,15.32
2022-09-13T21:07:19.201Z,15.28
2022-09-13T21:09:48.553Z,15.23
2022-09-13T21:12:17.873Z,15.20
2022-09-13T21:14:47.353Z,15.18
2022-09-13T21:17:16.619Z,15.20
2022-09-13T21:19:46.008Z,15.16
2022-09-13T21:22:15.450Z,15.15
2022-09-13T21:24:44.785Z,15.14
2022-09-13T21:27:15.483Z,15.14
2022-09-13T21:29:44.837Z,15.14
2022-09-13T21:32:14.234Z,15.14
2022-09-13T21:34:43.845Z,15.17
2022-09-13T21:37:13.418Z,15.20
2022-09-13T21:39:42.794Z,15.20
2022-09-13T21:42:12.266Z,15.20
2022-09-13T21:44:43.610Z,15.23
2022-09-13T21:47:12.925Z,15.23
2022-09-13T21:49:43.842Z,15.22
2022-09-13T21:52:13.255Z,15.23
2022-09-13T21:54:42.523Z,15.25
2022-09-13T21:57:11.768Z,15.23
2022-09-13T21:59:40.997Z,15.22
2022-09-13T22:02:10.545Z,15.24
2022-09-13T22:04:39.835Z,15.34
2022-09-13T22:07:09.290Z,15.39
2022-09-13T22:09:38.505Z,15.36
2022-09-13T22:12:08.138Z,15.35
2022-09-13T22:14:37.342Z,15.35
2022-09-13T22:17:06.751Z,15.32
2022-09-13T22:19:36.322Z,15.25
2022-09-13T22:22:06.616Z,15.22
2022-09-13T22:24:36.557Z,15.20
2022-09-13T22:27:07.414Z,15.16
2022-09-13T22:29:37.038Z,15.21
2022-09-13T22:32:06.412Z,15.14
2022-09-13T22:34:35.892Z,15.15
2022-09-13T22:37:05.113Z,15.16
2022-09-13T22:39:34.534Z,15.20
2022-09-13T22:42:03.776Z,15.18
2022-09-13T22:44:33.953Z,15.20
2022-09-13T22:47:03.180Z,15.18
2022-09-13T22:49:32.645Z,15.24
2022-09-13T22:52:02.030Z,15.27
2022-09-13T22:54:31.291Z,15.16
2022-09-13T22:57:00.901Z,15.11
2022-09-13T22:59:30.679Z,15.10
2022-09-13T23:01:59.909Z,15.08
2022-09-13T23:04:29.379Z,15.09
2022-09-13T23:06:58.921Z,15.05
2022-09-13T23:09:28.524Z,14.98
2022-09-13T23:11:57.759Z,14.97
2022-09-13T23:14:27.086Z,14.95
2022-09-13T23:16:56.472Z,14.88
2022-09-13T23:19:27.608Z,14.89
2022-09-13T23:21:56.868Z,14.88
2022-09-13T23:24:26.203Z,14.83
2022-09-13T23:26:57.021Z,14.81
2022-09-13T23:29:26.281Z,14.81
2022-09-13T23:31:55.628Z,14.80
2022-09-13T23:34:25.286Z,14.77
2022-09-13T23:36:55.314Z,14.74
2022-09-13T23:39:24.577Z,14.74
2022-09-13T23:41:53.969Z,14.74
2022-09-13T23:44:23.648Z,14.75
2022-09-13T23:46:52.842Z,14.72
2022-09-13T23:49:22.695Z,14.74
2022-09-13T23:51:51.932Z,14.75
2022-09-13T23:54:21.819Z,14.70
2022-09-13T23:56:51.051Z,14.73
2022-09-13T23:59:20.616Z,14.79
